createdAt,value
2022-07-29T00:03:14.765Z,97384.84
2022-07-29T00:06:22.598Z,97372.70
2022-07-29T00:09:32.083Z,97374.12
2022-07-29T00:12:25.768Z,97374.82
2022-07-29T00:15:14.677Z,97378.73
2022-07-29T00:18:01.755Z,97377.85
2022-07-29T00:20:48.843Z,97372.98
2022-07-29T00:23:36.909Z,97370.80
2022-07-29T00:26:06.354Z,97373.21
2022-07-29T00:29:06.336Z,97374.83
2022-07-29T00:35:43.787Z,97373.10
2022-07-29T00:38:31.666Z,97372.98
2022-07-29T00:41:37.636Z,97367.60
2022-07-29T00:44:26.071Z,97367.40
2022-07-29T00:50:56.867Z,97366.92
2022-07-29T00:53:26.631Z,97363.95
2022-07-29T00:56:15.720Z,97361.31
2022-07-29T00:59:21.518Z,97359.09
2022-07-29T01:08:40.510Z,97355.80
2022-07-29T01:11:27.478Z,97349.20
2022-07-29T01:14:15.937Z,97348.83
2022-07-29T01:17:30.733Z,97353.52
2022-07-29T01:23:49.131Z,97355.41
2022-07-29T01:27:05.148Z,97356.59
2022-07-29T01:29:40.558Z,97358.36
2022-07-29T01:32:27.600Z,97359.26
2022-07-29T01:35:34.018Z,97355.20
2022-07-29T01:38:28.413Z,97352.80
2022-07-29T01:44:21.468Z,97350.94
2022-07-29T01:47:52.182Z,97351.13
2022-07-29T01:51:00.281Z,97357.93
2022-07-29T01:53:55.421Z,97359.66
2022-07-29T01:56:43.203Z,97358.55
2022-07-29T02:03:17.364Z,97363.02
2022-07-29T02:05:48.933Z,97362.95
2022-07-29T02:09:13.998Z,97364.10
2022-07-29T02:15:47.859Z,97359.94
2022-07-29T02:18:38.206Z,97359.73
2022-07-29T02:21:15.536Z,97358.16
2022-07-29T02:24:03.794Z,97356.48
2022-07-29T02:27:28.847Z,97354.88
2022-07-29T02:30:01.596Z,97353.69
2022-07-29T02:32:51.730Z,97354.54
2022-07-29T02:35:40.890Z,97356.41
2022-07-29T02:38:49.257Z,97355.31
2022-07-29T02:41:55.749Z,97356.71
2022-07-29T02:44:44.009Z,97356.12
2022-07-29T02:47:54.019Z,97354.66
2022-07-29T02:50:31.477Z,97350.45
2022-07-29T02:53:23.670Z,97357.62
2022-07-29T02:56:15.767Z,97352.52
2022-07-29T02:59:07.003Z,97347.70
2022-07-29T03:01:58.204Z,97348.01
2022-07-29T03:05:25.563Z,97348.77
2022-07-29T03:08:15.675Z,97350.17
2022-07-29T03:18:31.162Z,97348.06
2022-07-29T03:21:18.446Z,97339.39
2022-07-29T03:24:10.260Z,97338.94
2022-07-29T03:26:58.268Z,97341.83
2022-07-29T03:29:49.907Z,97345.04
2022-07-29T03:32:37.207Z,97347.89
2022-07-29T03:35:26.554Z,97346.88
2022-07-29T03:38:32.167Z,97345.10
2022-07-29T03:41:05.998Z,97347.80
2022-07-29T03:44:11.913Z,97349.39
2022-07-29T03:49:41.081Z,97350.96
2022-07-29T03:52:30.349Z,97350.42
2022-07-29T03:55:35.781Z,97348.82
2022-07-29T04:01:49.100Z,97353.40
2022-07-29T04:04:37.229Z,97354.41
2022-07-29T04:07:24.450Z,97351.34
2022-07-29T04:09:53.593Z,97357.63
2022-07-29T04:12:22.797Z,97365.68
2022-07-29T04:15:09.730Z,97372.59
2022-07-29T04:18:33.588Z,97370.48
2022-07-29T04:21:20.420Z,97376.34
2022-07-29T04:24:08.514Z,97373.98
2022-07-29T04:27:32.390Z,97375.63
2022-07-29T04:40:31.140Z,97378.41
2022-07-29T04:50:43.605Z,97374.73
2022-07-29T04:53:31.070Z,97375.54
2022-07-29T04:56:00.148Z,97379.59
2022-07-29T04:58:29.711Z,97380.32
2022-07-29T05:04:08.110Z,97384.73
2022-07-29T05:07:32.267Z,97389.20
2022-07-29T05:13:45.176Z,97393.42
2022-07-29T05:17:10.071Z,97401.44
2022-07-29T05:29:42.530Z,97408.63
2022-07-29T05:35:47.179Z,97402.80
2022-07-29T05:38:34.163Z,97407.80
2022-07-29T05:44:46.066Z,97406.98
2022-07-29T05:47:19.304Z,97415.98
2022-07-29T05:49:50.940Z,97413.02
2022-07-29T05:52:39.639Z,97410.82
2022-07-29T05:55:09.977Z,97411.86
2022-07-29T05:57:38.881Z,97413.29
2022-07-29T06:04:08.355Z,97411.00
2022-07-29T06:06:56.319Z,97409.14
2022-07-29T06:09:26.349Z,97411.08
2022-07-29T06:12:32.131Z,97411.26
2022-07-29T06:15:01.391Z,97410.85
2022-07-29T06:18:06.803Z,97411.69
2022-07-29T06:21:31.156Z,97416.14
2022-07-29T06:24:21.317Z,97417.66
2022-07-29T06:30:15.118Z,97422.78
2022-07-29T06:33:02.578Z,97427.09
2022-07-29T06:35:38.643Z,97431.02
2022-07-29T06:41:38.241Z,97429.70
2022-07-29T06:44:44.096Z,97431.54
2022-07-29T06:47:41.466Z,97433.46
2022-07-29T06:50:13.011Z,97435.87
2022-07-29T06:53:00.274Z,97448.31
2022-07-29T06:55:48.074Z,97459.79
2022-07-29T06:58:54.393Z,97463.63
2022-07-29T07:01:43.541Z,97460.69
2022-07-29T07:04:31.837Z,97459.84
2022-07-29T07:10:43.968Z,97460.56
2022-07-29T07:13:13.332Z,97459.68
2022-07-29T07:16:03.190Z,97457.86
2022-07-29T07:22:14.933Z,97458.16
2022-07-29T07:25:02.404Z,97461.48
2022-07-29T07:27:49.444Z,97464.23
2022-07-29T07:30:54.456Z,97462.16
2022-07-29T07:36:47.601Z,97462.46
2022-07-29T07:39:53.041Z,97464.63
2022-07-29T07:48:17.351Z,97457.30
2022-07-29T07:50:46.388Z,97457.39
2022-07-29T07:53:51.440Z,97457.95
2022-07-29T07:56:38.453Z,97454.96
2022-07-29T07:59:26.418Z,97457.62
2022-07-29T08:05:02.744Z,97456.98
2022-07-29T08:07:34.951Z,97461.13
2022-07-29T08:10:36.715Z,97462.67
2022-07-29T08:13:06.338Z,97465.29
2022-07-29T08:22:31.079Z,97467.73
2022-07-29T08:25:20.799Z,97471.02
2022-07-29T08:28:26.555Z,97471.36
2022-07-29T08:31:14.147Z,97473.69
2022-07-29T08:37:25.457Z,97475.41
2022-07-29T08:39:54.457Z,97475.59
2022-07-29T08:42:26.490Z,97473.04
2022-07-29T08:44:55.891Z,97469.23
2022-07-29T08:50:51.120Z,97467.04
2022-07-29T08:53:25.168Z,97466.48
2022-07-29T08:56:33.298Z,97462.98
2022-07-29T09:02:31.867Z,97465.52
2022-07-29T09:05:40.675Z,97466.80
2022-07-29T09:08:12.510Z,97463.24
2022-07-29T09:11:00.447Z,97461.98
2022-07-29T09:13:50.830Z,97460.04
2022-07-29T09:17:07.031Z,97454.67
2022-07-29T09:19:38.118Z,97454.85
2022-07-29T09:22:27.174Z,97452.58
2022-07-29T09:24:56.098Z,97449.38
2022-07-29T09:31:12.681Z,97443.45
2022-07-29T09:34:00.630Z,97440.95
2022-07-29T09:37:25.756Z,97435.19
2022-07-29T09:41:07.172Z,97435.07
2022-07-29T09:50:23.748Z,97428.58
2022-07-29T09:55:53.908Z,97420.48
2022-07-29T09:58:40.586Z,97416.63
2022-07-29T10:04:16.143Z,97420.11
2022-07-29T10:07:05.367Z,97415.84
2022-07-29T10:13:04.563Z,97407.52
2022-07-29T10:15:56.210Z,97405.11
2022-07-29T10:19:02.979Z,97401.86
2022-07-29T10:24:38.708Z,97400.40
2022-07-29T10:31:37.336Z,97391.53
2022-07-29T10:35:31.382Z,97386.73
2022-07-29T10:38:54.991Z,97387.38
2022-07-29T10:41:53.112Z,97380.48
2022-07-29T10:44:25.322Z,97379.58
2022-07-29T10:50:57.189Z,97376.95
2022-07-29T10:54:15.993Z,97371.77
2022-07-29T11:00:33.752Z,97359.66
2022-07-29T11:03:49.789Z,97360.61
2022-07-29T11:07:08.729Z,97358.56
2022-07-29T11:09:38.707Z,97353.29
2022-07-29T11:12:46.468Z,97353.95
2022-07-29T11:15:55.057Z,97351.89
2022-07-29T11:18:25.678Z,97347.56
2022-07-29T11:32:38.366Z,97334.80
2022-07-29T11:35:38.164Z,97341.60
2022-07-29T11:48:31.303Z,97333.50
2022-07-29T11:57:20.826Z,97328.07
2022-07-29T11:59:51.510Z,97329.90
2022-07-29T12:02:48.728Z,97333.17
2022-07-29T12:05:48.313Z,97330.75
2022-07-29T12:07:01.664Z,97342.55
2022-07-29T12:08:22.711Z,97328.71
2022-07-29T12:11:47.472Z,97322.56
2022-07-29T12:18:31.531Z,97315.04
2022-07-29T12:21:04.045Z,97310.02
2022-07-29T12:23:34.442Z,97309.11
2022-07-29T12:26:26.204Z,97309.23
2022-07-29T12:29:20.103Z,97302.34
2022-07-29T12:33:21.794Z,97302.45
2022-07-29T12:36:27.245Z,97297.92
2022-07-29T12:42:04.474Z,97299.41
2022-07-29T12:48:34.031Z,97298.09
2022-07-29T12:51:40.980Z,97297.02
2022-07-29T12:54:30.999Z,97298.50
2022-07-29T12:57:37.132Z,97293.42
2022-07-29T13:04:06.069Z,97292.50
2022-07-29T13:06:41.082Z,97288.16
2022-07-29T13:09:57.182Z,97284.52
2022-07-29T13:13:20.347Z,97280.10
2022-07-29T13:16:44.879Z,97274.77
2022-07-29T13:20:27.184Z,97268.33
2022-07-29T13:23:38.396Z,97264.59
2022-07-29T13:26:26.859Z,97260.59
2022-07-29T13:35:26.125Z,97257.11
2022-07-29T13:38:13.966Z,97247.55
2022-07-29T13:44:24.302Z,97239.52
2022-07-29T13:47:49.520Z,97229.52
2022-07-29T13:51:13.495Z,97224.02
2022-07-29T13:54:01.839Z,97220.45
2022-07-29T13:56:31.909Z,97221.19
2022-07-29T13:59:19.145Z,97224.69
2022-07-29T14:02:05.846Z,97218.48
2022-07-29T14:14:11.936Z,97211.38
2022-07-29T14:17:17.578Z,97212.29
2022-07-29T14:19:46.617Z,97208.25
2022-07-29T14:23:20.149Z,97209.39
2022-07-29T14:31:59.510Z,97223.69
2022-07-29T14:35:04.537Z,97231.46
2022-07-29T14:38:28.050Z,97246.34
2022-07-29T14:41:35.738Z,97247.59
2022-07-29T14:47:46.789Z,97246.29
2022-07-29T14:57:40.863Z,97232.13
2022-07-29T15:00:47.432Z,97236.19
2022-07-29T15:03:23.713Z,97230.54
2022-07-29T15:06:11.230Z,97230.21
2022-07-29T15:08:58.194Z,97224.42
2022-07-29T15:12:03.615Z,97210.55
2022-07-29T15:15:09.454Z,97200.21
2022-07-29T15:17:56.139Z,97199.16
2022-07-29T15:20:43.462Z,97188.41
2022-07-29T15:23:30.643Z,97184.09
2022-07-29T15:26:36.126Z,97178.48
2022-07-29T15:29:23.861Z,97166.65
2022-07-29T15:32:31.569Z,97161.91
2022-07-29T15:35:40.261Z,97159.25
2022-07-29T15:38:28.679Z,97161.41
2022-07-29T15:41:15.982Z,97163.99
2022-07-29T15:44:41.246Z,97172.93
2022-07-29T15:47:47.378Z,97181.23
2022-07-29T15:50:16.247Z,97190.55
2022-07-29T15:56:08.630Z,97192.73
2022-07-29T15:58:56.106Z,97205.16
2022-07-29T16:02:01.436Z,97209.25
2022-07-29T16:05:09.483Z,97212.06
2022-07-29T16:08:33.020Z,97222.25
2022-07-29T16:11:38.855Z,97233.69
2022-07-29T16:14:28.433Z,97238.67
2022-07-29T16:16:58.335Z,97243.27
2022-07-29T16:19:45.609Z,97242.98
2022-07-29T16:22:32.543Z,97243.94
2022-07-29T16:28:25.168Z,97238.71
2022-07-29T16:31:49.070Z,97243.16
2022-07-29T16:34:54.092Z,97239.25
2022-07-29T16:37:22.687Z,97244.70
2022-07-29T16:40:45.789Z,97249.46
2022-07-29T16:43:32.614Z,97256.15
2022-07-29T16:46:20.922Z,97255.20
2022-07-29T16:49:07.576Z,97251.13
2022-07-29T16:51:54.271Z,97248.17
2022-07-29T16:57:29.326Z,97255.02
2022-07-29T17:03:20.969Z,97256.21
2022-07-29T17:05:52.198Z,97251.84
2022-07-29T17:09:18.703Z,97258.23
2022-07-29T17:12:06.345Z,97256.95
2022-07-29T17:14:54.186Z,97262.97
2022-07-29T17:17:38.871Z,97260.98
2022-07-29T17:20:32.470Z,97258.95
2022-07-29T17:30:08.491Z,97264.54
2022-07-29T17:32:55.277Z,97268.73
2022-07-29T17:36:00.195Z,97276.66
2022-07-29T17:39:27.071Z,97274.05
2022-07-29T17:42:13.998Z,97273.83
2022-07-29T17:45:00.593Z,97275.81
2022-07-29T17:51:30.810Z,97273.80
2022-07-29T17:57:05.694Z,97272.09
2022-07-29T17:59:34.233Z,97273.73
2022-07-29T18:02:22.135Z,97271.33
2022-07-29T18:04:53.733Z,97272.98
2022-07-29T18:07:41.602Z,97276.30
2022-07-29T18:10:47.251Z,97279.55
2022-07-29T18:16:58.912Z,97277.45
2022-07-29T18:20:04.421Z,97276.49
2022-07-29T18:23:11.463Z,97277.09
2022-07-29T18:30:19.617Z,97283.59
2022-07-29T18:33:24.677Z,97294.30
2022-07-29T18:40:12.425Z,97306.77
2022-07-29T18:47:03.141Z,97312.70
2022-07-29T18:49:35.614Z,97311.30
2022-07-29T18:52:25.138Z,97314.02
2022-07-29T18:55:43.861Z,97309.48
2022-07-29T19:01:55.633Z,97317.68
2022-07-29T19:05:02.097Z,97322.40
2022-07-29T19:08:27.013Z,97331.05
2022-07-29T19:10:55.645Z,97341.33
2022-07-29T19:23:16.601Z,97357.75
2022-07-29T19:32:33.005Z,97359.72
2022-07-29T19:35:38.346Z,97354.73
2022-07-29T19:38:25.374Z,97355.29
2022-07-29T19:41:48.738Z,97353.67
2022-07-29T19:44:26.174Z,97357.31
2022-07-29T19:46:54.886Z,97361.55
2022-07-29T19:49:23.880Z,97365.92
2022-07-29T19:52:11.257Z,97372.63
2022-07-29T19:54:57.869Z,97378.23
2022-07-29T20:04:34.245Z,97390.91
2022-07-29T20:07:03.408Z,97395.79
2022-07-29T20:10:27.725Z,97396.70
2022-07-29T20:13:34.964Z,97395.11
2022-07-29T20:16:59.411Z,97388.15
2022-07-29T20:23:28.163Z,97381.16
2022-07-29T20:26:20.950Z,97380.30
2022-07-29T20:36:15.164Z,97373.48
2022-07-29T20:42:07.630Z,97356.23
2022-07-29T20:44:57.178Z,97352.31
2022-07-29T20:48:02.243Z,97343.29
2022-07-29T20:50:31.215Z,97339.65
2022-07-29T20:53:54.336Z,97337.30
2022-07-29T20:57:00.963Z,97342.77
2022-07-29T21:00:25.110Z,97351.13
2022-07-29T21:03:12.172Z,97347.73
2022-07-29T21:05:59.391Z,97345.09
2022-07-29T21:09:05.431Z,97348.40
2022-07-29T21:14:58.514Z,97361.63
2022-07-29T21:18:23.532Z,97364.95
2022-07-29T21:21:47.391Z,97367.72
2022-07-29T21:24:35.531Z,97365.38
2022-07-29T21:27:42.113Z,97370.25
2022-07-29T21:30:11.802Z,97366.35
2022-07-29T21:33:17.614Z,97369.70
2022-07-29T21:36:14.967Z,97374.00
2022-07-29T21:38:54.513Z,97367.90
2022-07-29T21:41:59.768Z,97365.52
2022-07-29T21:45:23.358Z,97368.47
2022-07-29T21:48:10.459Z,97370.02
2022-07-29T21:51:16.164Z,97373.20
2022-07-29T21:54:58.926Z,97381.58
2022-07-29T21:58:04.303Z,97386.33
2022-07-29T22:00:52.217Z,97385.53
2022-07-29T22:03:21.069Z,97390.33
2022-07-29T22:05:49.778Z,97393.62
2022-07-29T22:08:55.679Z,97400.30
2022-07-29T22:15:05.925Z,97406.20
2022-07-29T22:21:54.189Z,97407.15
2022-07-29T22:25:19.032Z,97415.88
2022-07-29T22:27:47.911Z,97420.17
2022-07-29T22:30:35.844Z,97420.27
2022-07-29T22:33:23.545Z,97423.81
2022-07-29T22:39:17.270Z,97423.98
2022-07-29T22:41:46.154Z,97425.42
2022-07-29T22:44:15.227Z,97423.59
2022-07-29T22:46:44.368Z,97423.70
2022-07-29T22:49:13.655Z,97425.58
2022-07-29T22:52:01.347Z,97428.61
2022-07-29T22:54:30.398Z,97429.20
2022-07-29T22:57:36.156Z,97430.18
2022-07-29T23:00:07.456Z,97436.66
2022-07-29T23:02:54.634Z,97433.61
2022-07-29T23:06:19.072Z,97437.86
2022-07-29T23:12:29.446Z,97448.53
2022-07-29T23:15:16.614Z,97448.33
2022-07-29T23:18:05.861Z,97447.97
2022-07-29T23:21:11.994Z,97443.01
2022-07-29T23:24:17.309Z,97443.08
2022-07-29T23:27:22.608Z,97436.66
2022-07-29T23:30:27.310Z,97431.15
2022-07-29T23:32:56.508Z,97428.60
2022-07-29T23:39:10.951Z,97416.04
2022-07-29T23:41:58.186Z,97414.15
2022-07-29T23:45:04.035Z,97411.05
2022-07-29T23:51:15.167Z,97410.21
2022-07-29T23:54:02.507Z,97402.39
2022-07-29T23:56:50.277Z,97394.57
